Time;durP1;ratioP1;P1;durP2;ratioP2;P2;SDS_P1;SDS_P2;PMS_P1;PMS_P2;Temp;Humidity;BMP_temperature;BMP_pressure;BME280_temperature;BME280_humidity;BME280_pressure;Samples;Min_cycle;Max_cycle;Signal;HPM_P1;HPM_P2
2022/03/04 00:01:10;;;;;;;16.67;6.67;;;;;;;;;;4999851;28;20024;-69
2022/03/04 00:03:35;;;;;;;21.50;7.33;;;;;;;;;;4999896;28;20113;-69
2022/03/04 00:06:00;;;;;;;17.90;5.87;;;;;;;;;;5000340;28;20360;-69
2022/03/04 00:08:26;;;;;;;15.07;6.13;;;;;;;;;;5000107;28;20033;-69
2022/03/04 00:10:51;;;;;;;25.17;6.83;;;;;;;;;;4999794;28;20030;-69
2022/03/04 00:13:16;;;;;;;15.03;6.67;;;;;;;;;;4999918;28;20415;-69
2022/03/04 00:15:41;;;;;;;15.57;5.67;;;;;;;;;;4999583;28;20192;-69
2022/03/04 00:18:07;;;;;;;21.10;7.63;;;;;;;;;;5000222;28;20026;-69
2022/03/04 00:20:33;;;;;;;18.90;7.40;;;;;;;;;;4999716;28;20293;-69
2022/03/04 00:22:58;;;;;;;17.03;6.87;;;;;;;;;;5000306;28;20026;-69
2022/03/04 00:25:23;;;;;;;25.27;8.23;;;;;;;;;;5002015;28;20034;-69
2022/03/04 00:27:49;;;;;;;21.60;7.40;;;;;;;;;;4999895;28;20320;-69
2022/03/04 00:30:14;;;;;;;25.67;7.60;;;;;;;;;;4999860;28;20520;-69
2022/03/04 00:32:39;;;;;;;21.57;8.30;;;;;;;;;;4997751;28;20038;-69
2022/03/04 00:35:05;;;;;;;24.43;8.53;;;;;;;;;;4999112;28;20369;-69
2022/03/04 00:37:30;;;;;;;20.60;7.47;;;;;;;;;;4999692;28;20555;-69
2022/03/04 00:39:55;;;;;;;21.20;7.67;;;;;;;;;;4999819;28;20087;-69
2022/03/04 00:42:21;;;;;;;17.63;6.97;;;;;;;;;;4998947;28;20461;-69
2022/03/04 00:44:46;;;;;;;17.23;6.73;;;;;;;;;;4999168;28;20061;-71
2022/03/04 00:47:11;;;;;;;16.47;6.97;;;;;;;;;;4999302;28;20038;-71
2022/03/04 00:49:37;;;;;;;19.43;6.80;;;;;;;;;;4999287;28;20672;-71
2022/03/04 00:52:02;;;;;;;22.30;7.73;;;;;;;;;;4999115;28;20165;-72
2022/03/04 00:54:27;;;;;;;17.73;7.33;;;;;;;;;;4999034;28;20033;-69
2022/03/04 00:56:53;;;;;;;12.70;5.40;;;;;;;;;;4999300;28;20338;-69
2022/03/04 00:59:18;;;;;;;21.37;7.67;;;;;;;;;;4999017;28;20025;-69
2022/03/04 01:01:43;;;;;;;26.83;8.63;;;;;;;;;;4999209;28;20029;-69
2022/03/04 01:04:09;;;;;;;20.80;7.03;;;;;;;;;;4998839;28;20069;-68
2022/03/04 01:06:35;;;;;;;17.83;7.23;;;;;;;;;;4999049;28;20467;-68
2022/03/04 01:09:00;;;;;;;18.60;7.17;;;;;;;;;;4999278;28;20083;-69
2022/03/04 01:11:25;;;;;;;19.53;7.00;;;;;;;;;;4998855;28;20651;-69
2022/03/04 01:13:50;;;;;;;22.90;7.67;;;;;;;;;;4999019;28;20030;-68
2022/03/04 01:16:16;;;;;;;20.10;7.00;;;;;;;;;;4998974;28;20652;-69
2022/03/04 01:18:41;;;;;;;20.97;7.60;;;;;;;;;;4998942;28;20025;-69
2022/03/04 01:21:06;;;;;;;18.67;6.40;;;;;;;;;;4997963;28;20036;-69
2022/03/04 01:23:31;;;;;;;15.37;5.73;;;;;;;;;;4998108;28;20037;-71
2022/03/04 01:25:57;;;;;;;15.10;6.23;;;;;;;;;;4998520;28;20137;-71
2022/03/04 01:28:22;;;;;;;14.63;5.67;;;;;;;;;;4998434;28;20591;-71
2022/03/04 01:30:48;;;;;;;16.03;6.63;;;;;;;;;;4998976;28;20359;-71
2022/03/04 01:33:13;;;;;;;14.90;5.80;;;;;;;;;;4998960;28;20542;-71
2022/03/04 01:35:38;;;;;;;12.10;5.27;;;;;;;;;;4998675;28;20030;-71
2022/03/04 01:38:04;;;;;;;22.57;6.70;;;;;;;;;;4998903;28;20026;-71
2022/03/04 01:40:29;;;;;;;17.43;6.10;;;;;;;;;;4998962;28;20111;-69
2022/03/04 01:42:54;;;;;;;18.43;7.10;;;;;;;;;;4998992;28;20112;-68
2022/03/04 01:45:20;;;;;;;22.63;7.30;;;;;;;;;;4998686;28;20350;-69
2022/03/04 01:47:46;;;;;;;16.00;6.90;;;;;;;;;;4997874;28;20561;-69
2022/03/04 01:50:14;;;;;;;19.80;7.33;;;;;;;;;;4998739;28;20342;-68
2022/03/04 01:52:39;;;;;;;20.70;6.97;;;;;;;;;;4998427;28;20025;-68
2022/03/04 01:55:05;;;;;;;11.83;4.83;;;;;;;;;;4998292;28;20231;-71
2022/03/04 01:57:31;;;;;;;21.67;7.60;;;;;;;;;;4998234;28;20026;-71
2022/03/04 01:59:56;;;;;;;13.37;6.43;;;;;;;;;;4997966;28;20034;-71
2022/03/04 02:02:21;;;;;;;13.77;5.93;;;;;;;;;;5039594;23;20106;-70
2022/03/04 02:04:49;;;;;;;15.27;6.37;;;;;;;;;;5037995;28;20036;-70
2022/03/04 02:07:14;;;;;;;17.47;7.40;;;;;;;;;;5038643;28;20025;-70
2022/03/04 02:09:39;;;;;;;19.20;7.40;;;;;;;;;;5037696;28;20648;-70
2022/03/04 02:12:05;;;;;;;18.77;6.87;;;;;;;;;;5037982;28;20595;-70
2022/03/04 02:14:30;;;;;;;15.97;6.97;;;;;;;;;;5037860;28;20060;-70
2022/03/04 02:16:55;;;;;;;21.23;7.53;;;;;;;;;;5038375;28;20021;-70
2022/03/04 02:19:21;;;;;;;17.57;6.03;;;;;;;;;;5037524;28;20025;-70
2022/03/04 02:21:57;;;;;;;14.23;5.67;;;;;;;;;;5038261;28;20260;-70
2022/03/04 02:24:22;;;;;;;17.87;6.77;;;;;;;;;;5037421;28;20111;-70
2022/03/04 02:26:48;;;;;;;14.47;5.90;;;;;;;;;;5037612;28;20105;-70
2022/03/04 02:29:14;;;;;;;15.43;6.60;;;;;;;;;;5037247;28;20051;-70
2022/03/04 02:31:39;;;;;;;21.03;6.90;;;;;;;;;;5038316;28;20608;-70
2022/03/04 02:34:05;;;;;;;16.10;5.63;;;;;;;;;;5037681;28;20472;-70
2022/03/04 02:36:30;;;;;;;11.03;5.17;;;;;;;;;;5037433;28;20278;-70
2022/03/04 02:38:55;;;;;;;15.73;5.87;;;;;;;;;;5037718;28;20021;-70
2022/03/04 02:41:20;;;;;;;19.40;6.80;;;;;;;;;;5038134;28;20256;-70
2022/03/04 02:43:46;;;;;;;17.47;6.47;;;;;;;;;;5037001;28;20590;-70
2022/03/04 02:46:13;;;;;;;14.87;5.07;;;;;;;;;;5037640;28;20381;-70
2022/03/04 02:48:38;;;;;;;11.17;5.43;;;;;;;;;;5037474;28;20029;-70
2022/03/04 02:51:03;;;;;;;18.73;5.87;;;;;;;;;;5037977;28;20029;-70
2022/03/04 02:53:29;;;;;;;12.90;4.43;;;;;;;;;;5037436;28;20036;-70
2022/03/04 02:55:54;;;;;;;14.80;6.30;;;;;;;;;;5037083;28;20528;-70
2022/03/04 02:58:19;;;;;;;20.03;6.63;;;;;;;;;;5038384;28;20029;-70
2022/03/04 03:00:44;;;;;;;22.20;6.80;;;;;;;;;;5040806;28;20106;-70
2022/03/04 03:03:10;;;;;;;21.80;6.90;;;;;;;;;;5041166;28;20040;-71
2022/03/04 03:05:35;;;;;;;19.23;7.27;;;;;;;;;;5041260;28;20111;-71
2022/03/04 03:08:01;;;;;;;19.93;8.13;;;;;;;;;;5039778;28;20464;-71
2022/03/04 03:10:26;;;;;;;22.27;7.67;;;;;;;;;;5032752;28;20173;-71
2022/03/04 03:12:51;;;;;;;20.97;6.83;;;;;;;;;;5040958;28;20044;-71
2022/03/04 03:15:17;;;;;;;25.17;9.03;;;;;;;;;;5040569;28;20468;-70
2022/03/04 03:17:42;;;;;;;16.40;6.47;;;;;;;;;;5041035;28;20297;-70
2022/03/04 03:20:08;;;;;;;24.80;7.87;;;;;;;;;;5033865;28;20096;-69
2022/03/04 03:22:33;;;;;;;18.50;5.87;;;;;;;;;;5040827;28;20573;-69
2022/03/04 03:24:59;;;;;;;28.43;8.53;;;;;;;;;;5034284;28;20389;-69
2022/03/04 03:27:24;;;;;;;17.60;6.53;;;;;;;;;;5040736;28;20033;-69
2022/03/04 03:29:49;;;;;;;18.40;6.63;;;;;;;;;;5040196;28;20444;-69
2022/03/04 03:32:14;;;;;;;16.83;7.63;;;;;;;;;;5040091;28;20064;-69
2022/03/04 03:34:40;;;;;;;17.30;5.57;;;;;;;;;;5032549;28;20017;-70
2022/03/04 03:37:06;;;;;;;20.10;7.33;;;;;;;;;;5040694;28;20074;-70
2022/03/04 03:39:32;;;;;;;11.77;5.43;;;;;;;;;;5040250;28;20489;-70
2022/03/04 03:41:57;;;;;;;17.13;7.23;;;;;;;;;;5040556;28;20031;-70
2022/03/04 03:44:22;;;;;;;16.13;7.37;;;;;;;;;;5040414;28;20184;-69
2022/03/04 03:46:48;;;;;;;20.30;7.20;;;;;;;;;;5040300;28;20071;-69
2022/03/04 03:49:13;;;;;;;14.33;7.30;;;;;;;;;;5037068;28;20029;-71
2022/03/04 03:51:38;;;;;;;20.80;7.13;;;;;;;;;;5040354;28;20047;-69
2022/03/04 03:54:03;;;;;;;16.47;6.10;;;;;;;;;;5038363;28;20021;-69
2022/03/04 03:56:29;;;;;;;15.03;6.40;;;;;;;;;;5040300;28;20048;-69
2022/03/04 03:58:54;;;;;;;15.00;4.83;;;;;;;;;;5037876;28;20028;-69
2022/03/04 04:01:19;;;;;;;19.43;6.33;;;;;;;;;;5039739;28;20132;-69
2022/03/04 04:03:45;;;;;;;17.47;6.10;;;;;;;;;;5039294;28;20106;-69
2022/03/04 04:06:10;;;;;;;15.70;6.40;;;;;;;;;;5040496;28;20156;-69
2022/03/04 04:08:35;;;;;;;20.03;6.90;;;;;;;;;;5033849;28;20444;-69
2022/03/04 04:11:01;;;;;;;13.67;6.20;;;;;;;;;;5031173;28;20052;-69
2022/03/04 04:13:26;;;;;;;12.43;5.37;;;;;;;;;;5034925;28;20068;-69
2022/03/04 04:15:51;;;;;;;11.17;5.67;;;;;;;;;;5032142;28;20553;-69
2022/03/04 04:18:16;;;;;;;12.17;5.40;;;;;;;;;;5036446;28;20083;-69
2022/03/04 04:20:42;;;;;;;12.80;5.53;;;;;;;;;;5039685;28;20031;-69
2022/03/04 04:23:07;;;;;;;9.40;4.20;;;;;;;;;;5037744;28;20021;-69
2022/03/04 04:25:32;;;;;;;14.30;6.00;;;;;;;;;;5030640;28;20059;-69
2022/03/04 04:27:58;;;;;;;13.37;5.77;;;;;;;;;;5038981;28;20207;-69
2022/03/04 04:30:23;;;;;;;13.87;5.67;;;;;;;;;;5039355;28;20056;-69
2022/03/04 04:32:48;;;;;;;18.00;6.37;;;;;;;;;;5036241;28;20104;-69
2022/03/04 04:35:13;;;;;;;14.67;5.60;;;;;;;;;;5028914;28;20473;-69
2022/03/04 04:37:39;;;;;;;17.67;6.43;;;;;;;;;;5036630;28;20505;-69
2022/03/04 04:40:04;;;;;;;14.80;5.57;;;;;;;;;;5035816;28;20424;-69
2022/03/04 04:42:30;;;;;;;12.80;5.30;;;;;;;;;;5039091;28;20112;-69
2022/03/04 04:44:55;;;;;;;12.60;5.07;;;;;;;;;;5035541;28;20036;-69
2022/03/04 04:47:21;;;;;;;13.80;6.17;;;;;;;;;;5038954;28;20025;-69
2022/03/04 04:49:46;;;;;;;15.30;5.77;;;;;;;;;;5038261;28;20021;-69
2022/03/04 04:52:11;;;;;;;17.07;7.33;;;;;;;;;;5038720;28;20282;-69
2022/03/04 04:54:36;;;;;;;14.20;5.90;;;;;;;;;;5036751;28;20271;-69
2022/03/04 04:57:02;;;;;;;18.67;5.83;;;;;;;;;;5038725;28;20576;-69
2022/03/04 04:59:27;;;;;;;14.43;6.20;;;;;;;;;;5036088;28;20086;-69
2022/03/04 05:01:52;;;;;;;18.87;6.83;;;;;;;;;;5038611;28;20477;-70
2022/03/04 05:04:18;;;;;;;15.63;6.27;;;;;;;;;;5037305;28;20033;-69
2022/03/04 05:06:43;;;;;;;19.67;7.83;;;;;;;;;;5038575;28;20036;-69
2022/03/04 05:09:09;;;;;;;21.10;6.73;;;;;;;;;;5037926;28;20033;-69
2022/03/04 05:11:34;;;;;;;23.13;7.80;;;;;;;;;;5038719;28;20278;-69
2022/03/04 05:13:59;;;;;;;15.83;6.50;;;;;;;;;;5029137;28;20068;-69
2022/03/04 05:16:25;;;;;;;21.13;8.20;;;;;;;;;;5034301;28;20025;-69
2022/03/04 05:18:50;;;;;;;19.87;7.00;;;;;;;;;;5030767;28;20025;-69
2022/03/04 05:21:15;;;;;;;22.97;8.07;;;;;;;;;;5033717;28;20497;-69
2022/03/04 05:26:24;;;;;;;26.90;8.43;;;;;;;;;;5037545;28;20064;-69
2022/03/04 05:28:50;;;;;;;17.13;7.77;;;;;;;;;;5037497;28;20029;-69
2022/03/04 05:31:15;;;;;;;17.10;7.00;;;;;;;;;;5037036;28;20477;-69
2022/03/04 05:33:41;;;;;;;22.10;7.90;;;;;;;;;;5034764;28;20520;-69
2022/03/04 05:36:06;;;;;;;26.33;9.27;;;;;;;;;;5038129;28;20017;-69
2022/03/04 05:38:31;;;;;;;23.27;8.77;;;;;;;;;;5038167;28;20029;-69
2022/03/04 05:40:56;;;;;;;21.63;8.10;;;;;;;;;;5038395;28;20277;-69
2022/03/04 05:43:22;;;;;;;19.63;7.73;;;;;;;;;;5033168;28;20034;-69
2022/03/04 05:45:47;;;;;;;22.27;9.37;;;;;;;;;;5037766;28;20029;-69
2022/03/04 05:48:12;;;;;;;28.07;8.77;;;;;;;;;;5035062;28;20655;-69
2022/03/04 05:50:37;;;;;;;21.53;8.70;;;;;;;;;;5038221;28;20180;-69
2022/03/04 05:53:03;;;;;;;31.17;10.67;;;;;;;;;;5035888;28;20025;-69
2022/03/04 05:55:29;;;;;;;22.77;8.23;;;;;;;;;;5035341;28;20032;-69
2022/03/04 05:57:54;;;;;;;25.63;9.43;;;;;;;;;;5037907;28;20437;-69
2022/03/04 06:00:19;;;;;;;23.10;8.87;;;;;;;;;;5034775;28;20021;-69
2022/03/04 06:02:45;;;;;;;26.77;9.33;;;;;;;;;;5033887;28;20136;-70
2022/03/04 06:05:10;;;;;;;27.67;9.87;;;;;;;;;;5031911;28;20029;-70
2022/03/04 06:07:35;;;;;;;27.77;9.40;;;;;;;;;;5027667;28;20021;-70
2022/03/04 06:10:01;;;;;;;26.97;9.70;;;;;;;;;;5024511;28;20099;-70
2022/03/04 06:12:26;;;;;;;22.50;9.03;;;;;;;;;;5034202;28;20422;-70
2022/03/04 06:14:52;;;;;;;26.87;9.57;;;;;;;;;;5027242;28;20151;-70
2022/03/04 06:17:17;;;;;;;31.63;11.63;;;;;;;;;;5036626;28;20484;-69
2022/03/04 06:19:44;;;;;;;25.73;9.67;;;;;;;;;;5036390;28;20040;-69
2022/03/04 06:22:09;;;;;;;20.30;7.97;;;;;;;;;;5036242;28;20497;-69
2022/03/04 06:24:34;;;;;;;26.97;8.70;;;;;;;;;;5036950;28;20105;-70
2022/03/04 06:26:59;;;;;;;25.43;9.27;;;;;;;;;;5033732;28;20121;-69
2022/03/04 06:29:25;;;;;;;26.17;9.30;;;;;;;;;;5036226;28;20029;-69
2022/03/04 06:31:51;;;;;;;29.73;9.83;;;;;;;;;;5036505;28;20472;-69
2022/03/04 06:34:17;;;;;;;21.03;6.83;;;;;;;;;;5037127;28;20102;-69
2022/03/04 06:36:42;;;;;;;31.73;9.90;;;;;;;;;;5037872;28;20477;-69
2022/03/04 06:39:07;;;;;;;29.80;11.20;;;;;;;;;;5030817;28;20025;-69
2022/03/04 06:41:33;;;;;;;25.80;10.60;;;;;;;;;;5040919;28;20059;-69
2022/03/04 06:43:58;;;;;;;36.67;11.20;;;;;;;;;;5036004;28;20029;-69
2022/03/04 06:46:24;;;;;;;27.17;8.97;;;;;;;;;;5037039;28;20032;-69
2022/03/04 06:48:49;;;;;;;16.80;6.73;;;;;;;;;;5040487;28;20176;-69
2022/03/04 06:51:14;;;;;;;26.67;9.77;;;;;;;;;;5039721;28;20116;-70
2022/03/04 06:53:39;;;;;;;27.53;9.50;;;;;;;;;;5037908;28;20123;-70
2022/03/04 06:56:05;;;;;;;19.83;7.50;;;;;;;;;;5040121;28;20009;-69
2022/03/04 06:58:30;;;;;;;23.43;8.17;;;;;;;;;;5035460;28;20033;-69
2022/03/04 07:00:56;;;;;;;22.40;7.57;;;;;;;;;;5039183;28;20048;-69
2022/03/04 07:03:23;;;;;;;24.07;8.57;;;;;;;;;;5035778;28;20035;-69
2022/03/04 07:05:48;;;;;;;20.73;7.30;;;;;;;;;;5039583;28;20025;-69
2022/03/04 07:08:14;;;;;;;33.73;9.03;;;;;;;;;;5037208;28;20686;-70
2022/03/04 07:10:40;;;;;;;28.83;10.37;;;;;;;;;;5037191;28;20040;-69
2022/03/04 07:13:06;;;;;;;27.07;10.63;;;;;;;;;;5040169;28;20032;-69
2022/03/04 07:15:31;;;;;;;18.93;8.30;;;;;;;;;;5040509;28;20078;-69
2022/03/04 07:17:56;;;;;;;28.67;9.57;;;;;;;;;;5036631;28;20033;-69
2022/03/04 07:20:22;;;;;;;26.77;9.37;;;;;;;;;;5036107;28;20109;-69
2022/03/04 07:22:47;;;;;;;23.20;8.33;;;;;;;;;;5040925;28;20646;-69
2022/03/04 07:25:13;;;;;;;23.30;7.43;;;;;;;;;;5040116;28;20456;-69
2022/03/04 07:27:39;;;;;;;21.23;7.87;;;;;;;;;;5040864;28;20267;-69
2022/03/04 07:30:05;;;;;;;20.97;7.67;;;;;;;;;;5037209;28;20112;-69
2022/03/04 07:32:31;;;;;;;20.27;8.00;;;;;;;;;;5040026;28;20021;-69
2022/03/04 07:34:57;;;;;;;19.23;6.60;;;;;;;;;;5040075;28;20027;-69
2022/03/04 07:37:22;;;;;;;20.40;8.00;;;;;;;;;;5040274;28;20088;-69
2022/03/04 07:39:47;;;;;;;18.47;7.10;;;;;;;;;;5036204;28;20187;-69
2022/03/04 07:42:13;;;;;;;24.50;9.40;;;;;;;;;;5040979;28;20538;-69
2022/03/04 07:44:38;;;;;;;21.13;7.90;;;;;;;;;;5035255;28;20111;-69
2022/03/04 07:47:04;;;;;;;16.27;6.77;;;;;;;;;;5040306;28;20028;-69
2022/03/04 07:49:29;;;;;;;17.70;6.40;;;;;;;;;;5036607;28;20036;-69
2022/03/04 07:51:54;;;;;;;12.90;5.53;;;;;;;;;;5040240;28;20123;-69
2022/03/04 07:54:19;;;;;;;18.27;6.97;;;;;;;;;;5037309;28;20021;-69
2022/03/04 07:56:45;;;;;;;24.83;7.37;;;;;;;;;;5040236;28;20044;-69
2022/03/04 07:59:10;;;;;;;14.83;6.33;;;;;;;;;;5039804;28;20017;-69
2022/03/04 08:01:35;;;;;;;17.60;7.73;;;;;;;;;;5039617;28;20075;-69
2022/03/04 08:04:00;;;;;;;12.83;6.13;;;;;;;;;;5036573;28;20244;-69
2022/03/04 08:06:26;;;;;;;13.30;5.43;;;;;;;;;;5039503;28;20024;-70
2022/03/04 08:08:51;;;;;;;13.17;6.00;;;;;;;;;;5038357;28;20607;-69
2022/03/04 08:11:16;;;;;;;15.53;6.50;;;;;;;;;;5039860;28;20102;-70
2022/03/04 08:13:41;;;;;;;15.60;6.50;;;;;;;;;;5032939;28;20088;-70
2022/03/04 08:16:08;;;;;;;13.47;6.50;;;;;;;;;;5033605;28;20086;-70
2022/03/04 08:18:33;;;;;;;10.40;4.83;;;;;;;;;;5032750;28;20100;-70
2022/03/04 08:20:59;;;;;;;19.30;7.63;;;;;;;;;;5033386;28;20163;-70
2022/03/04 08:23:25;;;;;;;17.90;6.07;;;;;;;;;;5035454;28;20045;-69
2022/03/04 08:25:50;;;;;;;15.50;5.63;;;;;;;;;;5033665;28;20480;-69
2022/03/04 08:28:16;;;;;;;14.13;5.67;;;;;;;;;;5039842;28;20270;-69
2022/03/04 08:30:41;;;;;;;12.50;5.47;;;;;;;;;;5039336;28;20452;-69
2022/03/04 08:33:06;;;;;;;14.30;6.03;;;;;;;;;;5027878;28;20029;-69
2022/03/04 08:35:32;;;;;;;16.50;6.03;;;;;;;;;;5032820;28;20045;-69
2022/03/04 08:37:57;;;;;;;18.77;5.90;;;;;;;;;;5038793;28;20029;-69
2022/03/04 08:40:23;;;;;;;17.00;6.37;;;;;;;;;;5035586;28;20029;-69
2022/03/04 08:42:49;;;;;;;14.20;5.70;;;;;;;;;;5039367;28;20020;-69
2022/03/04 08:45:14;;;;;;;13.83;4.47;;;;;;;;;;5036065;28;20040;-69
2022/03/04 08:47:43;;;;;;;11.83;4.93;;;;;;;;;;5039302;28;20017;-69
2022/03/04 08:50:09;;;;;;;14.83;6.57;;;;;;;;;;5037727;28;20083;-69
2022/03/04 08:52:34;;;;;;;14.07;5.93;;;;;;;;;;5039185;28;20040;-69
2022/03/04 08:54:59;;;;;;;13.27;5.17;;;;;;;;;;5036236;28;20564;-69
2022/03/04 08:57:25;;;;;;;15.20;6.90;;;;;;;;;;5038440;28;20255;-69
2022/03/04 08:59:50;;;;;;;10.73;4.53;;;;;;;;;;5037098;28;20524;-69
2022/03/04 09:02:15;;;;;;;11.47;5.03;;;;;;;;;;5035403;28;20355;-69
2022/03/04 09:04:40;;;;;;;11.00;4.57;;;;;;;;;;5038596;28;20033;-69
2022/03/04 09:07:07;;;;;;;11.77;4.90;;;;;;;;;;5038766;28;20031;-69
2022/03/04 09:09:33;;;;;;;9.77;3.83;;;;;;;;;;5025684;28;20316;-69
2022/03/04 09:11:58;;;;;;;10.50;4.57;;;;;;;;;;5039065;28;20017;-69
2022/03/04 09:14:24;;;;;;;10.33;4.67;;;;;;;;;;5038423;28;20580;-69
2022/03/04 09:16:50;;;;;;;10.73;3.97;;;;;;;;;;5038622;28;20013;-69
2022/03/04 09:19:15;;;;;;;9.27;4.07;;;;;;;;;;5027322;28;20017;-69
2022/03/04 09:21:41;;;;;;;11.97;5.27;;;;;;;;;;5038930;28;20492;-69
2022/03/04 09:24:07;;;;;;;13.17;5.50;;;;;;;;;;5028394;28;20385;-69
2022/03/04 09:26:32;;;;;;;12.30;5.10;;;;;;;;;;5026923;28;20109;-69
2022/03/04 09:28:57;;;;;;;11.00;3.83;;;;;;;;;;5037778;28;20028;-69
2022/03/04 09:31:23;;;;;;;24.67;7.43;;;;;;;;;;5038198;28;20511;-69
2022/03/04 09:33:48;;;;;;;11.33;4.60;;;;;;;;;;5030731;28;20138;-69
2022/03/04 09:36:14;;;;;;;13.80;5.37;;;;;;;;;;5037771;28;20063;-69
2022/03/04 09:38:40;;;;;;;12.50;5.37;;;;;;;;;;5033262;28;20293;-69
2022/03/04 09:41:05;;;;;;;7.90;3.80;;;;;;;;;;5038535;28;20029;-69
2022/03/04 09:43:30;;;;;;;15.07;5.17;;;;;;;;;;5032885;28;20108;-69
2022/03/04 09:45:56;;;;;;;11.47;5.57;;;;;;;;;;5037820;28;20302;-69
2022/03/04 09:48:22;;;;;;;12.00;4.57;;;;;;;;;;5034463;28;20033;-69
2022/03/04 09:50:48;;;;;;;13.93;6.20;;;;;;;;;;5036878;28;20323;-69
2022/03/04 09:53:14;;;;;;;11.03;4.87;;;;;;;;;;5035079;28;20045;-69
2022/03/04 09:55:39;;;;;;;9.97;4.27;;;;;;;;;;5036364;28;20559;-69
2022/03/04 09:58:08;;;;;;;9.97;4.33;;;;;;;;;;5037942;28;20029;-69
2022/03/04 10:00:34;;;;;;;11.70;4.57;;;;;;;;;;5037679;28;20029;-69
2022/03/04 10:02:59;;;;;;;12.70;5.27;;;;;;;;;;5037332;28;20044;-69
2022/03/04 10:05:24;;;;;;;11.93;4.57;;;;;;;;;;5036654;28;20420;-69
2022/03/04 10:07:50;;;;;;;11.63;4.40;;;;;;;;;;5038399;28;20032;-69
2022/03/04 10:10:18;;;;;;;14.13;4.67;;;;;;;;;;5041335;28;20032;-69
2022/03/04 10:12:57;;;;;;;13.37;4.70;;;;;;;;;;5042043;28;20029;-69
2022/03/04 10:15:23;;;;;;;10.03;3.90;;;;;;;;;;5029223;28;20028;-69
2022/03/04 10:17:58;;;;;;;10.20;4.77;;;;;;;;;;5041707;28;20108;-69
2022/03/04 10:20:31;;;;;;;12.63;4.97;;;;;;;;;;5030568;28;20104;-69
2022/03/04 10:23:08;;;;;;;13.97;5.50;;;;;;;;;;5040867;28;20029;-69
2022/03/04 10:25:33;;;;;;;11.47;4.80;;;;;;;;;;5032413;28;20025;-69
2022/03/04 10:28:07;;;;;;;10.17;4.60;;;;;;;;;;5040469;28;20270;-69
2022/03/04 10:30:34;;;;;;;6.27;3.17;;;;;;;;;;5039760;28;20103;-69
2022/03/04 10:33:09;;;;;;;8.93;4.10;;;;;;;;;;5039135;28;20165;-69
2022/03/04 10:35:35;;;;;;;12.03;4.23;;;;;;;;;;5033825;28;20377;-69
2022/03/04 10:38:00;;;;;;;9.73;4.10;;;;;;;;;;5040627;28;20021;-69
2022/03/04 10:40:30;;;;;;;11.87;5.10;;;;;;;;;;5038091;28;20021;-69
2022/03/04 10:43:07;;;;;;;9.07;4.47;;;;;;;;;;5041554;28;20021;-69
2022/03/04 10:45:32;;;;;;;13.83;4.47;;;;;;;;;;5040361;28;20500;-69
2022/03/04 10:48:02;;;;;;;12.07;4.57;;;;;;;;;;5040706;28;20033;-69
2022/03/04 10:50:38;;;;;;;8.43;3.87;;;;;;;;;;5040276;28;20536;-69
2022/03/04 10:53:20;;;;;;;14.90;4.60;;;;;;;;;;5040406;28;20028;-69
2022/03/04 10:55:45;;;;;;;13.10;5.05;;;;;;;;;;5030200;28;20258;-69
2022/03/04 10:58:29;;;;;;;8.80;3.53;;;;;;;;;;5038796;28;20669;-69
2022/03/04 11:00:56;;;;;;;11.17;4.00;;;;;;;;;;5028556;28;20688;-69
2022/03/04 11:03:25;;;;;;;11.43;4.23;;;;;;;;;;5038082;28;20025;-71
2022/03/04 11:05:52;;;;;;;8.17;3.63;;;;;;;;;;5041223;28;20037;-71
2022/03/04 11:08:17;;;;;;;28.57;4.53;;;;;;;;;;5038867;28;20029;-71
2022/03/04 11:10:43;;;;;;;11.13;4.20;;;;;;;;;;5041442;28;20531;-71
2022/03/04 11:13:10;;;;;;;8.10;3.97;;;;;;;;;;5040644;28;20064;-71
2022/03/04 11:15:36;;;;;;;11.57;4.20;;;;;;;;;;5040855;28;20093;-70
2022/03/04 11:18:03;;;;;;;9.73;4.37;;;;;;;;;;5039843;28;20017;-69
2022/03/04 11:20:28;;;;;;;10.23;4.40;;;;;;;;;;5030584;28;20028;-68
2022/03/04 11:22:54;;;;;;;13.87;5.70;;;;;;;;;;5040302;28;20079;-68
2022/03/04 11:25:19;;;;;;;13.87;5.77;;;;;;;;;;5027730;28;20040;-69
2022/03/04 11:27:46;;;;;;;11.60;4.03;;;;;;;;;;5040329;28;20439;-68
2022/03/04 11:30:27;;;;;;;10.00;4.23;;;;;;;;;;5039806;28;20060;-68
2022/03/04 11:33:00;;;;;;;12.03;4.83;;;;;;;;;;5040187;28;20029;-69
2022/03/04 11:35:35;;;;;;;8.53;4.00;;;;;;;;;;5029895;28;20037;-69
2022/03/04 11:38:01;;;;;;;10.80;4.23;;;;;;;;;;5039618;28;20021;-68
2022/03/04 11:40:38;;;;;;;10.10;4.37;;;;;;;;;;5039670;28;20079;-68
2022/03/04 11:43:06;;;;;;;12.33;5.93;;;;;;;;;;5040220;28;20189;-68
2022/03/04 11:45:32;;;;;;;9.13;3.87;;;;;;;;;;5040232;28;20037;-68
2022/03/04 11:48:02;;;;;;;9.03;3.70;;;;;;;;;;5040076;28;20050;-69
2022/03/04 11:50:29;;;;;;;10.80;4.40;;;;;;;;;;5040694;28;20253;-69
2022/03/04 11:53:10;;;;;;;10.30;3.93;;;;;;;;;;5040295;28;20493;-69
2022/03/04 11:55:35;;;;;;;10.63;4.70;;;;;;;;;;5027591;28;20574;-68
2022/03/04 11:58:01;;;;;;;11.77;4.30;;;;;;;;;;5039361;28;20032;-68
2022/03/04 12:00:27;;;;;;;11.07;4.33;;;;;;;;;;5040377;28;20017;-68
2022/03/04 12:02:56;;;;;;;14.53;5.47;;;;;;;;;;5040139;28;20528;-69
2022/03/04 12:05:22;;;;;;;10.77;4.67;;;;;;;;;;5027162;28;20033;-69
2022/03/04 12:07:49;;;;;;;10.73;4.47;;;;;;;;;;5040170;28;20036;-71
2022/03/04 12:10:15;;;;;;;10.77;4.67;;;;;;;;;;5028222;28;20029;-71
2022/03/04 12:12:58;;;;;;;12.13;5.07;;;;;;;;;;5041707;28;20025;-71
2022/03/04 12:15:23;;;;;;;8.70;4.00;;;;;;;;;;5040078;28;20520;-71
2022/03/04 12:18:03;;;;;;;13.53;4.50;;;;;;;;;;5039889;28;20114;-69
2022/03/04 12:20:29;;;;;;;8.87;3.30;;;;;;;;;;5030551;28;20408;-68
2022/03/04 12:22:58;;;;;;;13.60;4.43;;;;;;;;;;5039709;28;20037;-69
2022/03/04 12:25:43;;;;;;;14.93;5.63;;;;;;;;;;5027334;28;20044;-69
2022/03/04 12:28:16;;;;;;;10.00;3.90;;;;;;;;;;5033076;28;20028;-69
2022/03/04 12:30:41;;;;;;;10.00;4.30;;;;;;;;;;5039224;28;20454;-69
2022/03/04 12:33:07;;;;;;;10.30;3.53;;;;;;;;;;5034119;28;20029;-68
2022/03/04 12:35:33;;;;;;;10.37;4.27;;;;;;;;;;5033588;28;20013;-69
2022/03/04 12:38:00;;;;;;;12.07;3.90;;;;;;;;;;5038973;28;20206;-69
2022/03/04 12:40:25;;;;;;;16.63;5.23;;;;;;;;;;5035739;28;20013;-69
2022/03/04 12:42:54;;;;;;;11.47;4.47;;;;;;;;;;5039663;28;20078;-69
2022/03/04 12:45:19;;;;;;;8.23;3.70;;;;;;;;;;5036278;28;20025;-69
2022/03/04 12:47:45;;;;;;;12.40;4.70;;;;;;;;;;5039598;28;20082;-69
2022/03/04 12:50:11;;;;;;;9.67;3.70;;;;;;;;;;5035353;28;20361;-69
2022/03/04 12:52:36;;;;;;;9.40;3.97;;;;;;;;;;5039409;28;20301;-69
2022/03/04 12:55:05;;;;;;;8.47;3.40;;;;;;;;;;5036690;28;20416;-69
2022/03/04 12:57:30;;;;;;;8.43;3.93;;;;;;;;;;5038988;28;20513;-70
2022/03/04 12:59:55;;;;;;;8.47;3.73;;;;;;;;;;5037413;28;20112;-70
2022/03/04 13:02:21;;;;;;;11.50;4.50;;;;;;;;;;5038955;28;20095;-70
2022/03/04 13:04:59;;;;;;;7.77;3.23;;;;;;;;;;5038180;28;20408;-70
2022/03/04 13:07:24;;;;;;;10.00;4.20;;;;;;;;;;5038591;28;20279;-70
2022/03/04 13:09:50;;;;;;;8.80;3.23;;;;;;;;;;5038081;28;20254;-70
2022/03/04 13:12:24;;;;;;;11.83;4.70;;;;;;;;;;5037600;28;20325;-70
2022/03/04 13:14:49;;;;;;;10.30;3.47;;;;;;;;;;5032597;28;20037;-70
2022/03/04 13:17:15;;;;;;;11.43;3.53;;;;;;;;;;5031990;28;20033;-70
2022/03/04 13:19:40;;;;;;;7.07;3.00;;;;;;;;;;5033536;28;20606;-70
2022/03/04 13:22:06;;;;;;;10.20;3.77;;;;;;;;;;5037028;28;20021;-70
2022/03/04 13:24:39;;;;;;;7.67;3.30;;;;;;;;;;5030791;28;20127;-70
2022/03/04 13:27:04;;;;;;;11.83;4.33;;;;;;;;;;5038330;28;20368;-69
2022/03/04 13:29:31;;;;;;;5.43;2.37;;;;;;;;;;5036832;28;20561;-69
2022/03/04 13:32:03;;;;;;;9.30;3.30;;;;;;;;;;5037096;28;20033;-70
2022/03/04 13:34:29;;;;;;;8.57;3.33;;;;;;;;;;5034597;28;20025;-70
2022/03/04 13:36:56;;;;;;;8.73;2.90;;;;;;;;;;5038206;28;20036;-70
2022/03/04 13:39:34;;;;;;;8.43;3.07;;;;;;;;;;5036813;28;20036;-70
2022/03/04 13:42:09;;;;;;;8.97;3.17;;;;;;;;;;5037563;28;20523;-70
2022/03/04 13:44:34;;;;;;;7.77;2.93;;;;;;;;;;5031365;28;20032;-70
2022/03/04 13:47:01;;;;;;;6.40;2.80;;;;;;;;;;5036341;28;20029;-72
2022/03/04 13:49:41;;;;;;;8.07;2.57;;;;;;;;;;5034930;28;20171;-70
2022/03/04 13:52:06;;;;;;;12.07;3.50;;;;;;;;;;5034110;28;20550;-70
2022/03/04 13:54:45;;;;;;;7.07;2.97;;;;;;;;;;5037526;28;20083;-70
2022/03/04 13:57:23;;;;;;;7.27;2.60;;;;;;;;;;5037442;28;20027;-69
2022/03/04 13:59:48;;;;;;;7.20;2.73;;;;;;;;;;5037255;28;20020;-69
2022/03/04 14:02:14;;;;;;;6.40;2.53;;;;;;;;;;5036940;28;20685;-70
2022/03/04 14:05:00;;;;;;;5.93;2.60;;;;;;;;;;5036640;28;20048;-70
2022/03/04 14:07:25;;;;;;;7.93;2.47;;;;;;;;;;5036789;28;20053;-69
2022/03/04 14:09:51;;;;;;;7.63;2.80;;;;;;;;;;5036740;28;20060;-69
2022/03/04 14:12:17;;;;;;;7.70;2.17;;;;;;;;;;5036744;28;20476;-69
2022/03/04 14:14:42;;;;;;;6.03;2.07;;;;;;;;;;5037820;28;20033;-69
2022/03/04 14:17:07;;;;;;;5.50;2.10;;;;;;;;;;5036931;28;20465;-69
2022/03/04 14:19:33;;;;;;;5.87;2.07;;;;;;;;;;5033579;28;20040;-70
2022/03/04 14:21:58;;;;;;;4.63;2.13;;;;;;;;;;5021419;28;20663;-70
2022/03/04 14:24:23;;;;;;;5.77;2.20;;;;;;;;;;5028663;28;20056;-70
2022/03/04 14:26:49;;;;;;;7.47;2.90;;;;;;;;;;5034175;28;20140;-70
2022/03/04 14:29:20;;;;;;;4.53;1.73;;;;;;;;;;5034255;28;20044;-69